createdAt,value
2022-12-23T00:00:45.391Z,63.55
2022-12-23T00:03:12.717Z,58.70
2022-12-23T00:05:40.850Z,55.22
2022-12-23T00:08:08.636Z,67.35
2022-12-23T00:10:39.898Z,65.05
2022-12-23T00:13:26.354Z,50.75
2022-12-23T00:16:08.484Z,51.05
2022-12-23T00:18:35.860Z,59.08
2022-12-23T00:21:09.330Z,50.33
2022-12-23T00:23:39.945Z,58.63
2022-12-23T00:26:07.925Z,46.22
2022-12-23T00:28:35.007Z,40.47
2022-12-23T00:31:07.329Z,50.67
2022-12-23T00:33:43.184Z,48.22
2022-12-23T00:36:16.850Z,82.03
2022-12-23T00:39:02.565Z,66.55
2022-12-23T00:41:49.059Z,52.90
2022-12-23T00:44:16.197Z,53.60
2022-12-23T00:46:43.402Z,47.50
2022-12-23T00:49:31.789Z,50.90
2022-12-23T00:51:59.291Z,48.45
2022-12-23T00:54:26.687Z,44.70
2022-12-23T00:56:54.218Z,44.65
2022-12-23T00:59:21.419Z,44.15
2022-12-23T01:02:07.127Z,49.97
2022-12-23T01:04:53.067Z,43.40
2022-12-23T01:07:21.103Z,52.08
2022-12-23T01:09:48.315Z,49.40
2022-12-23T01:12:15.459Z,49.58
2022-12-23T01:14:42.536Z,51.08
2022-12-23T01:17:09.840Z,45.13
2022-12-23T01:19:37.127Z,57.08
2022-12-23T01:22:04.297Z,50.55
2022-12-23T01:24:32.474Z,65.75
2022-12-23T01:26:59.990Z,45.97
2022-12-23T01:29:27.807Z,37.22
2022-12-23T01:31:54.971Z,43.25
2022-12-23T01:34:22.071Z,41.80
2022-12-23T01:36:49.122Z,46.25
2022-12-23T01:39:16.217Z,34.53
2022-12-23T01:42:02.181Z,41.03
2022-12-23T01:44:54.003Z,63.53
2022-12-23T01:47:30.343Z,37.65
2022-12-23T01:50:06.066Z,37.25
2022-12-23T01:52:38.987Z,42.08
2022-12-23T01:55:06.788Z,43.80
2022-12-23T01:57:36.918Z,34.60
2022-12-23T02:00:25.372Z,36.90
2022-12-23T02:03:11.152Z,34.75
2022-12-23T02:05:38.750Z,31.05
2022-12-23T02:08:25.048Z,36.45
2022-12-23T02:11:10.849Z,37.72
2022-12-23T02:14:27.178Z,40.90
2022-12-23T02:17:06.133Z,40.95
2022-12-23T02:19:33.187Z,35.67
2022-12-23T02:23:02.062Z,34.05
2022-12-23T02:25:38.178Z,28.73
2022-12-23T02:28:23.320Z,30.35
2022-12-23T02:31:02.187Z,36.65
2022-12-23T02:34:02.233Z,34.05
2022-12-23T02:36:39.219Z,36.60
2022-12-23T02:39:14.828Z,38.08
2022-12-23T02:41:48.001Z,32.70
2022-12-23T02:44:23.713Z,33.78
2022-12-23T02:46:57.330Z,35.47
2022-12-23T02:49:30.978Z,34.97
2022-12-23T02:52:03.850Z,40.72
2022-12-23T02:54:35.444Z,36.08
2022-12-23T02:57:06.378Z,51.97
2022-12-23T02:59:45.856Z,38.30
2022-12-23T03:02:13.010Z,32.97
2022-12-23T03:04:42.470Z,47.78
2022-12-23T03:07:31.610Z,64.13
2022-12-23T03:10:13.762Z,48.92
2022-12-23T03:13:02.126Z,61.40
2022-12-23T03:15:47.646Z,50.83
2022-12-23T03:18:39.685Z,47.42
2022-12-23T03:21:13.223Z,61.47
2022-12-23T03:23:55.512Z,52.78
2022-12-23T03:26:31.247Z,45.53
2022-12-23T03:29:09.776Z,58.85
2022-12-23T03:31:38.322Z,52.65
2022-12-23T03:34:24.521Z,66.97
2022-12-23T03:36:56.320Z,58.20
2022-12-23T03:39:30.057Z,50.63
2022-12-23T03:42:02.341Z,47.38
2022-12-23T03:44:35.252Z,52.72
2022-12-23T03:47:08.249Z,42.35
2022-12-23T03:49:41.966Z,54.10
2022-12-23T03:52:20.885Z,65.53
2022-12-23T03:54:58.164Z,61.20
2022-12-23T03:57:48.958Z,63.20
2022-12-23T04:00:16.185Z,74.03
2022-12-23T04:03:00.285Z,56.97
2022-12-23T04:05:35.308Z,86.35
2022-12-23T04:08:05.157Z,80.53
2022-12-23T04:10:32.442Z,81.10
2022-12-23T04:12:59.818Z,89.00
2022-12-23T04:15:28.111Z,58.30
2022-12-23T04:17:57.992Z,85.57
2022-12-23T04:20:25.666Z,90.03
2022-12-23T04:22:52.713Z,93.90
2022-12-23T04:25:19.835Z,80.90
2022-12-23T04:27:46.949Z,76.10
2022-12-23T04:30:14.359Z,103.43
2022-12-23T04:32:42.657Z,93.55
2022-12-23T04:35:10.574Z,85.28
2022-12-23T04:37:38.489Z,73.65
2022-12-23T04:40:06.362Z,98.28
2022-12-23T04:42:33.476Z,105.38
2022-12-23T04:45:00.589Z,98.47
2022-12-23T04:47:27.973Z,78.68
2022-12-23T04:49:54.972Z,79.18
2022-12-23T04:52:22.306Z,120.03
2022-12-23T04:54:49.406Z,172.23
2022-12-23T04:57:16.602Z,165.65
2022-12-23T04:59:43.685Z,118.72
2022-12-23T05:02:11.397Z,125.57
2022-12-23T05:04:38.677Z,108.72
2022-12-23T05:07:05.752Z,120.95
2022-12-23T05:09:32.854Z,80.78
2022-12-23T05:11:59.933Z,139.70
2022-12-23T05:14:26.985Z,142.77
2022-12-23T05:16:54.135Z,123.93
2022-12-23T05:19:21.275Z,124.65
2022-12-23T05:21:48.380Z,124.63
2022-12-23T05:24:15.463Z,150.05
2022-12-23T05:26:47.629Z,129.02
2022-12-23T05:29:15.886Z,125.13
2022-12-23T05:31:43.374Z,121.88
2022-12-23T05:34:10.642Z,140.63
2022-12-23T05:36:37.715Z,117.82
2022-12-23T05:39:04.928Z,106.10
2022-12-23T05:41:31.967Z,191.75
2022-12-23T05:43:59.002Z,132.38
2022-12-23T05:46:27.140Z,101.90
2022-12-23T05:48:54.735Z,127.07
2022-12-23T05:51:21.820Z,127.88
2022-12-23T05:53:48.942Z,129.93
2022-12-23T05:56:16.005Z,115.38
2022-12-23T05:58:43.097Z,108.10
2022-12-23T06:01:10.309Z,112.25
2022-12-23T06:03:37.592Z,111.47
2022-12-23T06:06:04.981Z,141.25
2022-12-23T06:08:32.263Z,127.50
2022-12-23T06:11:00.065Z,124.90
2022-12-23T06:13:27.137Z,190.68
2022-12-23T06:15:54.131Z,114.15
2022-12-23T06:18:21.152Z,142.85
2022-12-23T06:20:48.900Z,93.07
2022-12-23T06:23:16.079Z,99.22
2022-12-23T06:25:43.246Z,125.70
2022-12-23T06:28:10.357Z,129.38
2022-12-23T06:30:37.325Z,139.80
2022-12-23T06:33:04.393Z,136.52
2022-12-23T06:35:31.559Z,147.25
2022-12-23T06:37:58.647Z,113.05
2022-12-23T06:40:25.721Z,95.10
2022-12-23T06:42:52.838Z,150.75
2022-12-23T06:45:19.993Z,168.73
2022-12-23T06:47:47.139Z,101.90
2022-12-23T06:50:14.183Z,93.07
2022-12-23T06:52:41.259Z,105.55
2022-12-23T06:55:08.581Z,93.68
2022-12-23T06:57:35.675Z,112.45
2022-12-23T07:00:05.051Z,127.35
2022-12-23T07:02:32.284Z,137.40
2022-12-23T07:04:59.341Z,101.20
2022-12-23T07:07:26.451Z,97.40
2022-12-23T07:09:53.503Z,105.18
2022-12-23T07:12:20.721Z,75.50
2022-12-23T07:14:47.811Z,86.70
2022-12-23T07:17:14.964Z,138.90
2022-12-23T07:19:42.016Z,99.80
2022-12-23T07:22:10.475Z,126.90
2022-12-23T07:24:37.989Z,108.22
2022-12-23T07:27:05.192Z,127.53
2022-12-23T07:29:32.258Z,179.73
2022-12-23T07:31:59.553Z,153.18
2022-12-23T07:34:26.684Z,142.10
2022-12-23T07:36:54.103Z,139.55
2022-12-23T07:39:21.289Z,100.28
2022-12-23T07:41:48.328Z,103.55
2022-12-23T07:44:15.577Z,157.82
2022-12-23T07:46:42.989Z,104.65
2022-12-23T07:49:10.367Z,102.05
2022-12-23T07:51:37.428Z,85.65
2022-12-23T07:54:04.502Z,105.68
2022-12-23T07:56:31.620Z,133.95
2022-12-23T07:58:58.790Z,164.02
2022-12-23T08:01:25.934Z,105.75
2022-12-23T08:03:53.210Z,129.88
2022-12-23T08:06:20.424Z,106.22
2022-12-23T08:08:47.478Z,113.25
2022-12-23T08:11:15.960Z,105.50
2022-12-23T08:13:45.091Z,124.18
2022-12-23T08:16:12.998Z,106.68
2022-12-23T08:18:42.096Z,169.82
2022-12-23T08:21:13.749Z,130.82
2022-12-23T08:23:42.295Z,160.80
2022-12-23T08:26:21.598Z,166.45
2022-12-23T08:28:49.757Z,182.95
2022-12-23T08:31:25.754Z,154.63
2022-12-23T08:33:55.514Z,190.30
2022-12-23T08:36:28.033Z,179.23
2022-12-23T08:38:56.390Z,160.07
2022-12-23T08:41:27.276Z,183.15
2022-12-23T08:43:54.585Z,187.00
2022-12-23T08:46:22.428Z,170.82
2022-12-23T08:48:50.203Z,167.88
2022-12-23T08:51:19.253Z,157.38
2022-12-23T08:53:47.111Z,144.15
2022-12-23T08:56:20.320Z,154.60
2022-12-23T08:58:48.988Z,145.88
2022-12-23T09:01:17.848Z,113.65
2022-12-23T09:03:45.641Z,127.53
2022-12-23T09:06:15.622Z,107.30
2022-12-23T09:08:43.357Z,68.93
2022-12-23T09:11:11.944Z,82.07
2022-12-23T09:13:39.298Z,82.40
2022-12-23T09:16:07.959Z,92.90
2022-12-23T09:18:36.037Z,100.60
2022-12-23T09:21:08.344Z,89.90
2022-12-23T09:23:35.514Z,68.35
2022-12-23T09:26:06.139Z,59.13
2022-12-23T09:28:33.277Z,87.30
2022-12-23T09:31:10.232Z,117.30
2022-12-23T09:33:37.508Z,140.68
2022-12-23T09:36:05.536Z,102.72
2022-12-23T09:38:33.579Z,92.40
2022-12-23T09:41:15.319Z,101.28
2022-12-23T09:44:15.036Z,70.53
2022-12-23T09:46:54.317Z,73.05
2022-12-23T09:49:22.893Z,72.53
2022-12-23T09:51:56.018Z,48.25
2022-12-23T09:54:26.312Z,81.10
2022-12-23T09:59:26.661Z,79.75
2022-12-23T10:02:09.204Z,78.50
2022-12-23T10:05:00.568Z,60.67
2022-12-23T10:07:44.410Z,73.70
2022-12-23T10:10:57.543Z,67.78
2022-12-23T10:13:29.901Z,41.90
2022-12-23T10:16:04.505Z,43.03
2022-12-23T10:18:46.472Z,54.92
2022-12-23T10:21:25.323Z,47.17
2022-12-23T10:23:54.411Z,49.90
2022-12-23T10:26:30.169Z,80.82
2022-12-23T10:29:19.682Z,62.05
2022-12-23T10:31:53.631Z,52.17
2022-12-23T10:34:36.603Z,68.65
2022-12-23T10:37:17.585Z,56.28
2022-12-23T10:40:02.470Z,58.58
2022-12-23T10:43:00.588Z,47.20
2022-12-23T10:45:27.574Z,64.63
2022-12-23T10:48:24.007Z,42.47
2022-12-23T10:51:01.444Z,52.63
2022-12-23T10:53:40.782Z,86.63
2022-12-23T10:56:08.806Z,50.58
2022-12-23T10:58:41.969Z,71.60
2022-12-23T11:01:17.544Z,63.58
2022-12-23T11:04:00.320Z,72.60
2022-12-23T11:06:34.885Z,74.38
2022-12-23T11:09:05.535Z,50.33
2022-12-23T11:12:02.216Z,58.63
2022-12-23T11:14:50.021Z,57.78
2022-12-23T11:17:23.700Z,89.97
2022-12-23T11:20:15.363Z,70.03
2022-12-23T11:22:51.610Z,66.63
2022-12-23T11:25:30.609Z,51.40
2022-12-23T11:28:03.271Z,66.45
2022-12-23T11:30:33.306Z,78.65
2022-12-23T11:33:00.479Z,157.32
2022-12-23T11:35:31.812Z,93.15
2022-12-23T11:38:01.123Z,75.40
2022-12-23T11:40:34.180Z,78.35
2022-12-23T11:43:04.256Z,75.28
2022-12-23T11:45:36.432Z,89.60
2022-12-23T11:48:06.139Z,78.85
2022-12-23T11:50:37.503Z,85.22
2022-12-23T11:53:13.674Z,59.83
2022-12-23T11:55:48.523Z,62.08
2022-12-23T11:58:19.956Z,98.55
2022-12-23T12:00:58.976Z,71.47
2022-12-23T12:03:36.172Z,54.30
2022-12-23T12:06:06.195Z,49.05
2022-12-23T12:08:38.631Z,57.92
2022-12-23T12:11:17.127Z,63.20
2022-12-23T12:13:48.181Z,54.53
2022-12-23T12:16:30.749Z,84.47
2022-12-23T12:19:04.920Z,102.88
2022-12-23T12:21:37.591Z,67.72
2022-12-23T12:24:19.316Z,65.60
2022-12-23T12:26:52.639Z,164.70
2022-12-23T12:29:43.894Z,55.30
2022-12-23T12:32:33.519Z,123.95
2022-12-23T12:35:17.248Z,117.90
2022-12-23T12:37:53.907Z,56.05
2022-12-23T12:40:26.530Z,136.73
2022-12-23T12:43:19.291Z,91.40
2022-12-23T12:45:53.409Z,124.80
2022-12-23T12:48:34.770Z,102.90
2022-12-23T12:51:12.836Z,81.47
2022-12-23T12:54:09.413Z,45.08
2022-12-23T12:56:39.604Z,98.25
2022-12-23T12:59:06.868Z,88.82
2022-12-23T13:01:48.462Z,102.03
2022-12-23T13:04:21.648Z,107.32
2022-12-23T13:07:02.169Z,87.57
2022-12-23T13:09:37.214Z,93.10
2022-12-23T13:12:50.119Z,121.53
2022-12-23T13:15:38.750Z,108.20
2022-12-23T13:18:16.450Z,112.10
2022-12-23T13:20:51.525Z,130.18
2022-12-23T13:23:44.463Z,117.72
2022-12-23T13:26:23.847Z,92.20
2022-12-23T13:29:14.794Z,97.60
2022-12-23T13:31:48.932Z,77.72
2022-12-23T13:34:40.152Z,118.60
2022-12-23T13:37:27.884Z,132.95
2022-12-23T13:40:14.675Z,78.03
2022-12-23T13:42:49.246Z,100.07
2022-12-23T13:45:18.616Z,118.38
2022-12-23T13:47:48.471Z,142.00
2022-12-23T13:50:33.591Z,184.35
2022-12-23T13:53:06.388Z,312.08
2022-12-23T13:56:12.126Z,111.47
2022-12-23T13:58:40.813Z,299.95
2022-12-23T14:01:08.458Z,306.17
2022-12-23T14:03:38.926Z,80.40
2022-12-23T14:06:22.328Z,85.10
2022-12-23T14:08:51.078Z,94.95
2022-12-23T14:11:33.592Z,302.98
2022-12-23T14:14:05.001Z,333.20
2022-12-23T14:16:50.926Z,177.55
2022-12-23T14:19:42.788Z,81.78
2022-12-23T14:22:39.509Z,296.58
2022-12-23T14:25:21.859Z,399.48
2022-12-23T14:28:07.608Z,243.95
2022-12-23T14:30:40.465Z,335.63
2022-12-23T14:33:28.068Z,372.40
2022-12-23T14:35:56.548Z,275.33
2022-12-23T14:38:29.413Z,546.83
2022-12-23T14:41:20.017Z,490.55
2022-12-23T14:43:47.070Z,419.98
2022-12-23T14:46:35.917Z,370.90
2022-12-23T14:49:36.821Z,191.60
2022-12-23T14:51:51.706Z,156.13
2022-12-23T14:54:38.430Z,315.70
2022-12-23T14:57:17.182Z,247.05
2022-12-23T15:00:07.467Z,225.73
2022-12-23T15:05:04.960Z,534.37
2022-12-23T15:07:39.123Z,184.63
2022-12-23T15:10:06.681Z,386.25
2022-12-23T15:12:36.963Z,695.53
2022-12-23T15:17:35.984Z,265.48
2022-12-23T15:20:08.344Z,188.48
2022-12-23T15:22:36.671Z,503.33
2022-12-23T15:25:05.672Z,462.67
2022-12-23T15:27:36.115Z,206.52
2022-12-23T15:30:03.583Z,149.30
2022-12-23T15:32:30.785Z,158.25
2022-12-23T15:35:06.627Z,185.80
2022-12-23T15:37:34.904Z,141.40
2022-12-23T15:40:12.535Z,117.20
2022-12-23T15:42:47.745Z,186.13
2022-12-23T15:45:37.412Z,324.45
2022-12-23T15:48:07.330Z,123.47
2022-12-23T15:50:42.015Z,105.68
2022-12-23T15:53:13.190Z,113.57
2022-12-23T15:55:41.549Z,86.55
2022-12-23T15:58:15.759Z,78.60
2022-12-23T16:00:51.075Z,220.35
2022-12-23T16:03:28.119Z,149.35
2022-12-23T16:05:55.612Z,118.10
2022-12-23T16:08:29.584Z,246.30
2022-12-23T16:11:16.252Z,85.75
2022-12-23T16:14:22.321Z,138.90
2022-12-23T16:16:52.621Z,126.68
2022-12-23T16:19:48.845Z,87.18
2022-12-23T16:22:36.422Z,180.35
2022-12-23T16:25:16.531Z,111.65
2022-12-23T16:28:07.919Z,129.32
2022-12-23T16:30:38.510Z,93.18
2022-12-23T16:33:22.765Z,210.52
2022-12-23T16:35:49.878Z,119.20
2022-12-23T16:38:18.416Z,151.32
2022-12-23T16:40:48.079Z,173.30
2022-12-23T16:43:16.348Z,142.90
2022-12-23T16:45:45.108Z,185.43
2022-12-23T16:48:41.447Z,133.15
2022-12-23T16:51:14.517Z,131.43
2022-12-23T16:53:41.673Z,100.65
2022-12-23T16:56:16.957Z,119.22
2022-12-23T16:58:44.991Z,153.27
2022-12-23T17:01:37.025Z,114.45
2022-12-23T17:04:05.020Z,99.40
2022-12-23T17:06:32.201Z,122.13
2022-12-23T17:08:59.443Z,156.77
2022-12-23T17:11:43.766Z,162.10
2022-12-23T17:14:17.490Z,128.77
2022-12-23T17:16:46.134Z,84.97
2022-12-23T17:19:13.793Z,115.32
2022-12-23T17:21:43.329Z,126.47
2022-12-23T17:24:17.017Z,104.50
2022-12-23T17:26:44.260Z,134.32
2022-12-23T17:29:12.987Z,124.78
2022-12-23T17:31:41.883Z,148.68
2022-12-23T17:34:17.539Z,113.68
2022-12-23T17:36:50.029Z,109.38
2022-12-23T17:39:18.735Z,160.43
2022-12-23T17:41:46.293Z,109.32
2022-12-23T17:44:17.508Z,91.22
2022-12-23T17:46:45.825Z,116.45
2022-12-23T17:49:13.114Z,114.88
2022-12-23T17:51:41.823Z,178.95
2022-12-23T17:54:24.409Z,176.13
2022-12-23T17:56:52.929Z,95.15
2022-12-23T17:59:20.713Z,111.95
2022-12-23T18:01:48.032Z,103.60
2022-12-23T18:04:15.641Z,104.05
2022-12-23T18:06:42.788Z,90.03
2022-12-23T18:09:09.913Z,319.10
2022-12-23T18:11:44.012Z,130.85
2022-12-23T18:14:28.198Z,127.60
2022-12-23T18:16:55.486Z,114.90
2022-12-23T18:19:22.670Z,176.68
2022-12-23T18:21:51.567Z,108.55
2022-12-23T18:24:19.232Z,140.70
2022-12-23T18:26:46.356Z,134.23
2022-12-23T18:29:13.638Z,114.60
2022-12-23T18:31:52.105Z,96.40
2022-12-23T18:34:20.653Z,153.60
2022-12-23T18:36:48.704Z,83.63
2022-12-23T18:39:15.929Z,128.05
2022-12-23T18:41:43.017Z,148.05
2022-12-23T18:44:21.265Z,173.15
2022-12-23T18:46:49.359Z,321.13
2022-12-23T18:49:16.693Z,316.85
2022-12-23T18:51:43.837Z,206.40
2022-12-23T18:54:17.254Z,302.40
2022-12-23T18:56:44.727Z,195.82
2022-12-23T18:59:27.156Z,369.25
2022-12-23T19:01:56.969Z,231.73
2022-12-23T19:04:24.282Z,257.70
2022-12-23T19:06:51.525Z,281.08
2022-12-23T19:09:21.584Z,118.55
2022-12-23T19:11:51.180Z,120.30
2022-12-23T19:14:18.615Z,106.70
2022-12-23T19:16:51.211Z,441.60
2022-12-23T19:19:19.674Z,320.65
2022-12-23T19:21:46.889Z,572.75
2022-12-23T19:24:14.252Z,161.15
2022-12-23T19:26:41.399Z,697.10
2022-12-23T19:29:09.030Z,306.58
2022-12-23T19:31:36.119Z,203.43
2022-12-23T19:34:03.422Z,206.60
2022-12-23T19:36:31.270Z,446.40
2022-12-23T19:38:58.718Z,219.90
2022-12-23T19:41:25.947Z,295.13
2022-12-23T19:43:53.028Z,320.25
2022-12-23T19:46:20.190Z,130.35
2022-12-23T19:48:52.587Z,130.93
2022-12-23T19:51:20.522Z,558.67
2022-12-23T19:53:50.432Z,446.15
2022-12-23T19:56:21.377Z,554.92
2022-12-23T19:58:49.585Z,188.30
2022-12-23T20:01:25.656Z,485.50
2022-12-23T20:03:55.287Z,670.53
2022-12-23T20:06:23.925Z,229.88
2022-12-23T20:08:55.042Z,330.10
2022-12-23T20:11:26.999Z,82.13
2022-12-23T20:13:57.427Z,418.50
2022-12-23T20:16:24.627Z,388.80
2022-12-23T20:18:52.155Z,237.85
2022-12-23T20:21:19.802Z,107.00
2022-12-23T20:23:46.831Z,358.23
2022-12-23T20:26:15.067Z,186.18
2022-12-23T20:28:42.566Z,204.63
2022-12-23T20:31:22.659Z,146.38
2022-12-23T20:33:51.512Z,500.13
2022-12-23T20:36:22.223Z,282.92
2022-12-23T20:38:50.613Z,301.75
2022-12-23T20:41:21.383Z,204.43
2022-12-23T20:44:23.382Z,91.55
2022-12-23T20:46:36.310Z,91.82
2022-12-23T20:49:04.105Z,198.00
2022-12-23T20:51:31.209Z,218.20
2022-12-23T20:54:01.469Z,175.02
2022-12-23T20:59:01.754Z,139.98
2022-12-23T21:01:38.363Z,250.82
2022-12-23T21:04:09.194Z,166.70
2022-12-23T21:06:36.676Z,101.28
2022-12-23T21:09:06.058Z,139.20
2022-12-23T21:11:37.303Z,74.67
2022-12-23T21:14:07.217Z,206.45
2022-12-23T21:16:36.099Z,305.75
2022-12-23T21:19:03.912Z,296.15
2022-12-23T21:21:32.141Z,204.43
2022-12-23T21:24:01.756Z,254.10
2022-12-23T21:26:30.850Z,301.73
2022-12-23T21:29:00.224Z,79.45
2022-12-23T21:31:28.908Z,163.77
2022-12-23T21:33:56.533Z,225.18
2022-12-23T21:36:26.689Z,493.80
2022-12-23T21:41:23.976Z,321.77
2022-12-23T21:43:51.811Z,415.30
2022-12-23T21:46:22.491Z,271.80
2022-12-23T21:48:50.672Z,347.90
2022-12-23T21:51:39.116Z,445.75
2022-12-23T21:54:08.652Z,403.13
2022-12-23T21:56:35.960Z,305.25
2022-12-23T21:59:06.616Z,256.10
2022-12-23T22:01:34.085Z,347.33
2022-12-23T22:04:01.334Z,489.25
2022-12-23T22:06:34.067Z,356.67
2022-12-23T22:09:01.147Z,255.32
2022-12-23T22:11:31.280Z,441.08
2022-12-23T22:14:00.166Z,341.90
2022-12-23T22:16:29.335Z,239.52
2022-12-23T22:18:58.194Z,370.15
2022-12-23T22:21:27.433Z,346.70
2022-12-23T22:23:55.411Z,270.50
2022-12-23T22:26:26.274Z,528.25
2022-12-23T22:28:55.577Z,393.92
2022-12-23T22:31:44.298Z,464.88
2022-12-23T22:34:18.254Z,372.15
2022-12-23T22:36:45.841Z,345.05
2022-12-23T22:39:21.028Z,382.13
2022-12-23T22:41:50.448Z,427.38
2022-12-23T22:44:18.004Z,421.90
2022-12-23T22:46:45.448Z,281.40
2022-12-23T22:49:13.813Z,390.58
2022-12-23T22:51:41.898Z,114.97
2022-12-23T22:54:09.192Z,168.00
2022-12-23T22:56:36.673Z,204.60
2022-12-23T22:59:05.067Z,161.85
2022-12-23T23:01:34.739Z,147.45
2022-12-23T23:04:03.468Z,349.95
2022-12-23T23:06:38.816Z,197.50
2022-12-23T23:09:08.788Z,431.73
2022-12-23T23:11:36.260Z,291.50
2022-12-23T23:14:04.179Z,189.40
2022-12-23T23:16:32.007Z,245.85
2022-12-23T23:19:00.115Z,323.40
2022-12-23T23:21:27.187Z,223.38
2022-12-23T23:23:54.277Z,347.20
2022-12-23T23:26:22.602Z,305.52
2022-12-23T23:28:49.704Z,245.13
2022-12-23T23:31:41.032Z,342.73
2022-12-23T23:34:03.872Z,273.30
2022-12-23T23:36:30.983Z,194.20
2022-12-23T23:38:59.087Z,311.58
2022-12-23T23:41:26.203Z,151.02
2022-12-23T23:43:53.366Z,145.70
2022-12-23T23:46:20.555Z,210.73
2022-12-23T23:48:47.816Z,144.57
2022-12-23T23:51:15.239Z,68.00
2022-12-23T23:53:42.322Z,193.88
2022-12-23T23:56:09.705Z,87.88
2022-12-23T23:58:37.491Z,165.02
